Time;durP1;ratioP1;P1;durP2;ratioP2;P2;SDS_P1;SDS_P2;PMS_P1;PMS_P2;Temp;Humidity;BMP_temperature;BMP_pressure;BME280_temperature;BME280_humidity;BME280_pressure;Samples;Min_cycle;Max_cycle;Signal;HPM_P1;HPM_P2
2022/01/29 00:01:23;;;;;;;6.00;3.07;;;4.30;73.60;;;4.04;53.38;95424.13;5036619;28;20876;-61
2022/01/29 00:03:51;;;;;;;3.17;2.70;;;4.30;72.90;;;4.04;53.63;95426.72;5040691;28;20463;-59
2022/01/29 00:06:18;;;;;;;3.47;2.80;;;4.30;73.60;;;4.05;53.77;95431.00;5034300;28;20594;-59
2022/01/29 00:08:45;;;;;;;3.20;2.73;;;4.30;73.50;;;4.05;53.67;95425.81;5041074;28;20507;-59
2022/01/29 00:11:15;;;;;;;4.33;3.37;;;4.30;73.70;;;4.03;53.35;95432.84;5042557;28;20483;-59
2022/01/29 00:13:42;;;;;;;5.20;3.17;;;4.30;73.60;;;4.02;53.62;95428.59;5036583;28;20993;-58
2022/01/29 00:16:11;;;;;;;7.67;3.63;;;4.30;73.50;;;3.99;53.67;95440.00;5048766;28;20494;-58
2022/01/29 00:18:40;;;;;;;4.43;3.77;;;4.20;73.70;;;3.97;53.81;95435.78;5037926;28;20498;-60
2022/01/29 00:21:07;;;;;;;4.93;3.90;;;4.20;73.60;;;3.93;53.65;95438.59;5041464;28;20471;-59
2022/01/29 00:23:35;;;;;;;5.03;4.03;;;4.20;73.90;;;3.92;54.54;95431.69;5037282;28;20456;-57
2022/01/29 00:26:05;;;;;;;4.40;4.00;;;4.20;75.00;;;3.92;54.49;95436.91;5038963;28;20551;-59
2022/01/29 00:28:35;;;;;;;4.53;4.10;;;4.20;75.00;;;3.92;54.90;95436.91;5040298;28;20451;-58
2022/01/29 00:31:04;;;;;;;9.13;4.27;;;4.20;75.70;;;3.92;54.63;95436.06;5040909;28;20469;-59
2022/01/29 00:33:33;;;;;;;5.43;3.97;;;4.20;75.30;;;3.92;54.77;95438.69;5036850;28;20857;-58
2022/01/29 00:36:00;;;;;;;4.57;4.17;;;4.20;75.50;;;3.92;54.79;95442.09;5043405;28;20526;-58
2022/01/29 00:38:28;;;;;;;6.77;4.20;;;4.20;75.60;;;3.92;54.68;95436.91;5044805;28;20521;-57
2022/01/29 00:40:55;;;;;;;6.80;4.27;;;4.10;75.20;;;3.91;54.26;95429.19;5038316;28;20514;-58
2022/01/29 00:43:23;;;;;;;6.27;4.40;;;4.20;75.70;;;3.91;54.70;95418.78;5043252;28;20456;-59
2022/01/29 00:45:50;;;;;;;6.30;4.30;;;4.20;75.70;;;3.90;54.95;95411.88;5034763;28;20479;-57
2022/01/29 00:48:18;;;;;;;5.00;4.60;;;4.20;75.70;;;3.89;54.59;95405.03;5039888;28;20575;-59
2022/01/29 00:50:47;;;;;;;11.03;4.90;;;4.10;75.90;;;3.87;54.87;95407.72;5037184;28;20857;-59
2022/01/29 00:53:15;;;;;;;8.37;5.30;;;4.10;75.90;;;3.86;55.21;95408.63;5042203;28;20484;-58
2022/01/29 00:55:42;;;;;;;4.87;4.40;;;4.10;75.90;;;3.85;55.07;95409.53;5033559;28;20483;-59
2022/01/29 00:58:09;;;;;;;4.83;4.10;;;4.10;76.00;;;3.84;54.86;95413.09;5040392;28;20545;-58
2022/01/29 01:00:37;;;;;;;4.27;3.80;;;4.10;76.30;;;3.83;54.81;95416.59;5042321;28;20836;-59
2022/01/29 01:03:04;;;;;;;5.70;4.43;;;4.10;76.50;;;3.83;54.93;95411.38;5041886;28;20449;-59
2022/01/29 01:05:31;;;;;;;5.23;4.53;;;4.10;76.50;;;3.84;55.25;95414.81;5040838;28;20480;-59
2022/01/29 01:08:00;;;;;;;5.50;4.80;;;4.10;77.00;;;3.82;55.25;95417.50;5036659;28;20457;-59
2022/01/29 01:10:27;;;;;;;8.07;5.23;;;4.10;77.00;;;3.82;55.26;95414.09;5038513;28;20471;-58
2022/01/29 01:12:55;;;;;;;6.20;5.00;;;4.10;77.00;;;3.81;55.06;95417.59;5036591;28;20834;-59
2022/01/29 01:15:22;;;;;;;5.87;5.27;;;4.10;77.00;;;3.80;55.37;95424.56;5040444;28;20968;-59
2022/01/29 01:17:49;;;;;;;7.90;5.50;;;4.10;76.90;;;3.76;55.22;95413.50;5037311;28;20986;-58
2022/01/29 01:20:16;;;;;;;5.83;4.90;;;4.00;77.10;;;3.76;55.53;95402.25;5040256;28;20913;-58
2022/01/29 01:22:44;;;;;;;6.73;4.97;;;4.00;77.70;;;3.75;56.20;95403.19;5036997;28;21023;-58
2022/01/29 01:25:12;;;;;;;8.20;5.77;;;4.00;77.90;;;3.72;55.19;95404.19;5041092;28;21042;-59
2022/01/29 01:27:39;;;;;;;7.97;5.70;;;4.00;77.10;;;3.69;56.14;95406.13;5036537;28;20451;-59
2022/01/29 01:30:08;;;;;;;8.50;5.03;;;3.90;77.00;;;3.67;55.56;95410.56;5041849;28;20471;-58
2022/01/29 01:32:36;;;;;;;7.93;6.37;;;3.90;77.20;;;3.64;55.39;95402.91;5034806;28;20984;-59
2022/01/29 01:35:11;;;;;;;6.10;4.57;;;3.90;77.40;;;3.62;55.36;95413.41;5037789;28;20462;-59
2022/01/29 01:37:45;;;;;;;4.97;4.50;;;3.90;77.00;;;3.60;55.53;95412.66;5039010;28;20520;-56
2022/01/29 01:40:14;;;;;;;5.03;4.60;;;3.90;77.70;;;3.58;56.16;95399.75;5036830;28;20445;-57
2022/01/29 01:42:42;;;;;;;8.03;3.93;;;3.80;77.50;;;3.57;55.97;95408.47;5039980;28;20455;-58
2022/01/29 01:45:09;;;;;;;7.20;5.30;;;3.80;77.70;;;3.58;55.53;95406.72;5036765;28;20544;-59
2022/01/29 01:47:37;;;;;;;8.43;5.00;;;3.80;77.90;;;3.56;56.09;95399.00;5035508;28;20476;-57
2022/01/29 01:50:05;;;;;;;10.23;4.57;;;3.80;78.10;;;3.56;56.54;95396.41;5039241;28;20808;-58
2022/01/29 01:52:32;;;;;;;6.17;4.50;;;3.80;78.30;;;3.56;56.38;95404.19;5038190;28;20456;-58
2022/01/29 01:54:59;;;;;;;6.17;4.87;;;3.80;78.10;;;3.52;56.10;95397.47;5038460;28;20456;-58
2022/01/29 01:57:28;;;;;;;7.43;5.17;;;3.80;78.50;;;3.55;55.68;95399.06;5035973;28;20491;-58
2022/01/29 01:59:55;;;;;;;7.40;4.90;;;3.80;78.10;;;3.54;56.16;95407.78;5034321;28;20485;-57
2022/01/29 02:02:22;;;;;;;6.80;4.80;;;3.80;78.40;;;3.53;56.40;95396.56;5039289;28;20479;-58
2022/01/29 02:04:50;;;;;;;9.33;5.47;;;3.80;78.60;;;3.53;56.46;95403.50;5037363;28;20467;-58
2022/01/29 02:07:18;;;;;;;8.13;4.60;;;3.80;78.90;;;3.53;57.04;95404.38;5040263;28;20477;-57
2022/01/29 02:09:46;;;;;;;9.80;4.73;;;3.80;79.20;;;3.52;56.47;95405.28;5038004;28;20455;-57
2022/01/29 02:12:13;;;;;;;7.73;4.67;;;3.80;79.20;;;3.54;56.25;95411.22;5043478;28;20536;-58
2022/01/29 02:14:44;;;;;;;13.63;5.87;;;3.80;79.10;;;3.55;56.95;95410.31;5031256;28;20452;-58
2022/01/29 02:17:12;;;;;;;7.47;5.50;;;3.80;79.10;;;3.56;56.93;95411.13;5037916;28;20471;-58
2022/01/29 02:19:39;;;;;;;5.93;5.33;;;3.80;79.40;;;3.56;56.97;95408.53;5042186;28;20485;-57
2022/01/29 02:22:08;;;;;;;7.67;4.70;;;3.80;79.70;;;3.58;56.96;95404.13;5037929;28;20476;-58
2022/01/29 02:24:36;;;;;;;6.10;4.93;;;3.80;79.70;;;3.58;56.75;95407.53;5037698;28;20466;-58
2022/01/29 02:27:03;;;;;;;9.10;5.43;;;3.80;79.80;;;3.57;57.10;95405.84;5037729;28;20903;-58
2022/01/29 02:29:32;;;;;;;8.23;5.73;;;3.80;79.70;;;3.58;57.22;95414.50;5040096;28;20570;-59
2022/01/29 02:32:00;;;;;;;11.57;4.70;;;3.80;80.00;;;3.61;57.02;95416.09;5035026;28;20484;-58
2022/01/29 02:34:28;;;;;;;6.90;5.00;;;3.80;80.40;;;3.62;56.75;95412.56;5035847;28;20460;-59
2022/01/29 02:36:55;;;;;;;5.80;4.43;;;3.90;80.10;;;3.63;56.97;95411.66;5040127;28;20833;-56
2022/01/29 02:39:24;;;;;;;6.70;5.03;;;3.90;80.20;;;3.63;57.03;95417.69;5036163;28;20551;-59
2022/01/29 02:41:51;;;;;;;6.30;4.97;;;3.90;80.90;;;3.64;56.99;95419.38;5040815;28;20480;-59
2022/01/29 02:44:21;;;;;;;7.33;4.83;;;3.90;80.10;;;3.66;57.10;95414.09;5036679;28;20474;-58
2022/01/29 02:46:51;;;;;;;6.90;4.83;;;3.90;80.40;;;3.69;57.13;95424.34;5038524;28;20495;-57
2022/01/29 02:49:19;;;;;;;6.30;4.60;;;4.00;80.80;;;3.70;57.47;95423.38;5040136;28;20448;-58
2022/01/29 02:51:47;;;;;;;10.03;4.40;;;4.00;80.80;;;3.72;57.18;95431.97;5041823;28;20680;-56
2022/01/29 02:54:15;;;;;;;5.90;5.20;;;4.00;80.80;;;3.74;57.33;95430.13;5038887;28;20470;-57
2022/01/29 02:56:43;;;;;;;5.80;4.87;;;4.00;80.80;;;3.74;57.06;95424.91;5038035;28;21081;-58
2022/01/29 02:59:11;;;;;;;7.07;5.07;;;4.00;80.80;;;3.75;57.44;95431.81;5040827;28;20496;-58
2022/01/29 03:01:38;;;;;;;7.50;4.87;;;4.00;80.80;;;3.75;57.03;95429.19;5034131;28;21028;-57
2022/01/29 03:04:06;;;;;;;6.10;4.30;;;4.00;80.60;;;3.77;56.87;95432.53;5040064;28;20514;-57
2022/01/29 03:06:33;;;;;;;5.93;5.10;;;4.00;80.60;;;3.77;57.30;95429.94;5037421;28;20529;-57
2022/01/29 03:09:00;;;;;;;9.33;5.40;;;4.00;80.20;;;3.75;56.28;95435.22;5038039;28;20519;-58
2022/01/29 03:11:28;;;;;;;9.93;4.50;;;4.00;79.80;;;3.72;56.92;95435.41;5038733;28;20488;-58
2022/01/29 03:13:56;;;;;;;5.40;4.70;;;4.00;79.80;;;3.71;57.07;95436.31;5041591;28;20455;-58
2022/01/29 03:16:23;;;;;;;4.60;4.20;;;3.90;79.90;;;3.72;57.12;95440.59;5037713;28;20477;-58
2022/01/29 03:18:51;;;;;;;6.57;4.93;;;4.00;80.20;;;3.74;56.75;95432.72;5042291;28;20480;-57
2022/01/29 03:21:18;;;;;;;5.00;3.87;;;4.00;80.20;;;3.74;56.87;95446.56;5039644;28;20534;-57
2022/01/29 03:23:45;;;;;;;5.37;4.67;;;4.00;80.30;;;3.75;57.12;95445.63;5038298;28;20474;-58
2022/01/29 03:26:13;;;;;;;11.53;4.87;;;4.00;80.20;;;3.78;56.69;95444.63;5040325;28;20468;-58
2022/01/29 03:28:40;;;;;;;4.80;3.97;;;4.00;80.20;;;3.79;56.98;95446.28;5039520;28;20463;-60
2022/01/29 03:31:09;;;;;;;12.73;4.50;;;4.00;79.60;;;3.77;56.85;95435.97;5035811;28;20686;-56
2022/01/29 03:33:36;;;;;;;5.37;3.90;;;4.00;79.70;;;3.80;56.68;95439.34;5037283;28;20452;-58
2022/01/29 03:36:03;;;;;;;3.57;3.00;;;4.00;79.90;;;3.79;56.17;95441.09;5042307;28;20475;-58
2022/01/29 03:38:31;;;;;;;4.73;4.43;;;4.10;79.70;;;3.80;56.84;95442.78;5036510;28;20452;-59
2022/01/29 03:41:00;;;;;;;4.03;3.60;;;4.00;79.70;;;3.79;56.68;95432.47;5042129;28;20996;-57
2022/01/29 03:43:31;;;;;;;6.97;3.53;;;4.00;79.20;;;3.79;56.11;95429.84;5043013;28;20448;-58
2022/01/29 03:46:00;;;;;;;5.63;4.13;;;4.00;79.20;;;3.76;56.42;95436.91;5040837;28;21023;-58
2022/01/29 03:48:30;;;;;;;4.27;3.97;;;4.00;79.30;;;3.76;56.71;95438.66;5035646;28;20453;-57
2022/01/29 03:50:57;;;;;;;3.20;3.00;;;4.00;79.30;;;3.76;56.62;95446.47;5037726;28;20473;-60
2022/01/29 03:53:25;;;;;;;4.17;3.80;;;4.00;80.10;;;3.75;56.13;95439.59;5037169;28;20698;-58
2022/01/29 03:55:52;;;;;;;4.80;4.30;;;4.00;79.20;;;3.74;56.48;95443.13;5037836;28;20499;-58
2022/01/29 03:58:19;;;;;;;4.17;3.77;;;4.00;79.20;;;3.73;55.86;95438.84;5042341;28;20911;-58
2022/01/29 04:00:47;;;;;;;4.33;3.97;;;4.00;79.20;;;3.73;56.58;95431.03;5039469;28;20585;-58
2022/01/29 04:03:14;;;;;;;3.60;3.30;;;4.00;79.50;;;3.72;57.08;95435.41;5040310;28;20478;-57
2022/01/29 04:05:42;;;;;;;3.83;3.53;;;4.00;79.70;;;3.70;56.46;95428.59;5040622;28;20473;-57
2022/01/29 04:08:15;;;;;;;3.80;3.50;;;3.90;79.70;;;3.70;56.87;95432.06;5039530;28;20521;-57
2022/01/29 04:10:42;;;;;;;4.87;3.80;;;3.90;79.60;;;3.69;56.71;95430.38;5037362;28;20476;-58
2022/01/29 04:13:12;;;;;;;5.57;3.63;;;3.90;79.20;;;3.69;56.11;95432.97;5038616;28;20906;-57
2022/01/29 04:15:39;;;;;;;6.60;4.20;;;4.00;79.70;;;3.68;56.20;95422.66;5043798;28;20502;-57
2022/01/29 04:18:06;;;;;;;4.00;3.70;;;3.90;79.40;;;3.66;55.99;95419.31;5037295;28;20452;-57
2022/01/29 04:20:33;;;;;;;7.27;3.80;;;3.90;79.10;;;3.63;56.25;95419.47;5039732;28;20894;-57
2022/01/29 04:23:02;;;;;;;4.00;3.40;;;3.90;79.20;;;3.62;56.74;95425.59;5037031;28;20463;-58
2022/01/29 04:25:30;;;;;;;3.80;3.50;;;3.90;79.40;;;3.60;56.18;95415.25;5038020;28;20515;-58
2022/01/29 04:27:57;;;;;;;5.13;3.97;;;3.80;79.50;;;3.58;56.60;95427.53;5038753;28;20506;-57
2022/01/29 04:30:29;;;;;;;4.40;4.00;;;3.80;79.20;;;3.56;56.12;95427.59;5040575;28;20478;-59
2022/01/29 04:33:14;;;;;;;4.33;3.93;;;3.80;79.30;;;3.55;56.29;95428.53;5043553;28;20806;-57
2022/01/29 04:35:41;;;;;;;3.40;3.20;;;3.80;79.40;;;3.54;56.90;95426.81;5036403;28;20479;-57
2022/01/29 04:38:10;;;;;;;5.60;3.43;;;3.80;79.60;;;3.55;56.26;95438.09;5044095;28;20455;-56
2022/01/29 04:40:37;;;;;;;4.23;3.80;;;3.80;79.60;;;3.54;57.02;95426.00;5034969;28;20502;-57
2022/01/29 04:43:04;;;;;;;4.47;3.67;;;3.80;79.40;;;3.53;55.90;95429.50;5045890;28;20452;-58
2022/01/29 04:45:32;;;;;;;3.10;2.63;;;3.80;79.00;;;3.51;56.36;95421.78;5036279;28;20891;-57
2022/01/29 04:47:59;;;;;;;3.80;3.47;;;3.80;79.20;;;3.51;55.92;95432.19;5038250;28;20953;-58
2022/01/29 04:50:27;;;;;;;3.03;2.83;;;3.80;79.10;;;3.49;56.43;95426.25;5035533;28;20480;-57
2022/01/29 04:52:54;;;;;;;4.00;3.63;;;3.70;78.90;;;3.49;56.56;95426.25;5037894;28;20544;-58
2022/01/29 04:55:23;;;;;;;3.53;3.23;;;3.70;78.90;;;3.50;56.77;95434.88;5039041;28;20448;-58
2022/01/29 04:57:50;;;;;;;4.20;3.57;;;3.70;78.90;;;3.50;56.65;95440.09;5036019;28;20581;-57
2022/01/29 05:00:20;;;;;;;6.10;3.33;;;3.80;79.60;;;3.52;55.82;95448.66;5033960;28;20509;-56
2022/01/29 05:02:48;;;;;;;3.97;3.67;;;3.80;79.10;;;3.50;56.67;95442.69;5037938;28;20472;-58
2022/01/29 05:05:15;;;;;;;3.20;2.90;;;3.80;79.20;;;3.51;56.91;95449.56;5037817;28;20452;-57
2022/01/29 05:07:50;;;;;;;3.50;3.20;;;3.80;79.70;;;3.50;57.12;95446.13;5041636;28;20991;-56
2022/01/29 05:10:19;;;;;;;3.97;3.63;;;3.80;79.60;;;3.49;56.60;95449.66;5038694;28;20535;-58
2022/01/29 05:12:53;;;;;;;4.33;3.77;;;3.80;79.50;;;3.50;56.70;95451.34;5038762;28;20448;-57
2022/01/29 05:15:28;;;;;;;4.07;3.70;;;3.80;79.60;;;3.49;56.29;95452.25;5040200;28;20535;-56
2022/01/29 05:28:56;;;;;;;3.60;3.30;;;3.70;79.90;;;3.49;57.18;95454.84;5034810;28;20435;-56
2022/01/29 05:31:23;;;;;;;4.27;3.50;;;3.70;80.20;;;3.50;56.55;95461.75;5040873;28;20467;-56
2022/01/29 05:33:50;;;;;;;3.27;3.07;;;3.70;80.40;;;3.54;57.57;95455.44;5035990;28;20453;-57
2022/01/29 05:36:17;;;;;;;6.23;4.23;;;3.80;80.60;;;3.52;56.82;95459.88;5036388;28;20878;-56
2022/01/29 05:38:45;;;;;;;4.37;4.00;;;3.80;80.40;;;3.57;56.55;95467.44;5033793;28;20506;-57
2022/01/29 05:41:12;;;;;;;5.07;3.50;;;3.80;80.40;;;3.58;57.33;95474.34;5038836;28;20672;-58
2022/01/29 05:43:39;;;;;;;4.50;3.40;;;3.80;80.60;;;3.58;56.46;95469.13;5037844;28;20807;-58
2022/01/29 05:46:08;;;;;;;4.50;3.87;;;3.80;80.50;;;3.58;56.87;95480.38;5037342;28;20472;-58
2022/01/29 05:48:35;;;;;;;8.63;4.10;;;3.80;80.60;;;3.57;57.27;95483.88;5035876;28;20464;-56
2022/01/29 05:51:02;;;;;;;4.40;3.90;;;3.90;80.90;;;3.58;57.05;95488.16;5035330;28;20492;-58
2022/01/29 05:53:30;;;;;;;4.20;3.80;;;3.80;80.80;;;3.59;57.67;95492.47;5040674;28;20464;-57
2022/01/29 05:55:57;;;;;;;4.80;3.97;;;3.90;81.10;;;3.59;57.21;95497.66;5040590;28;20483;-58
2022/01/29 05:58:24;;;;;;;4.73;3.97;;;3.80;81.10;;;3.61;57.77;95507.13;5038346;28;20453;-57
2022/01/29 06:00:52;;;;;;;3.50;3.30;;;3.80;81.30;;;3.61;57.54;95508.00;5038546;28;20488;-56
2022/01/29 06:03:20;;;;;;;3.73;3.40;;;3.90;81.10;;;3.61;57.62;95507.13;5036881;28;21038;-58
2022/01/29 06:05:48;;;;;;;4.23;3.90;;;3.90;81.10;;;3.61;57.17;95508.00;5039380;28;20916;-57
2022/01/29 06:08:15;;;;;;;6.60;4.23;;;3.90;81.40;;;3.61;57.37;95509.72;5037755;28;20452;-57
2022/01/29 06:10:42;;;;;;;5.00;4.50;;;3.80;81.20;;;3.61;57.50;95507.13;5033166;28;20482;-57
2022/01/29 06:13:11;;;;;;;9.23;6.63;;;3.80;81.50;;;3.64;57.22;95515.63;5028978;28;20452;-57
2022/01/29 06:15:41;;;;;;;7.20;5.13;;;3.90;81.60;;;3.66;57.90;95516.38;5043959;28;20519;-57
2022/01/29 06:18:11;;;;;;;5.17;4.40;;;3.90;81.50;;;3.66;57.63;95523.34;5038995;28;20471;-57
2022/01/29 06:20:40;;;;;;;5.73;5.23;;;3.90;81.40;;;3.67;57.94;95519.81;5039508;28;20832;-56
2022/01/29 06:23:09;;;;;;;5.47;4.97;;;3.90;81.50;;;3.68;58.11;95511.09;5044204;28;20471;-57
2022/01/29 06:25:36;;;;;;;4.93;4.50;;;3.90;81.60;;;3.71;58.06;95513.53;5042041;28;20475;-57
2022/01/29 06:28:04;;;;;;;7.40;4.00;;;3.90;81.60;;;3.76;57.65;95511.50;5043255;28;20443;-57
2022/01/29 06:30:31;;;;;;;7.50;5.17;;;4.00;81.70;;;3.83;57.09;95523.28;5042885;28;20639;-57
2022/01/29 06:32:59;;;;;;;4.10;3.80;;;4.00;81.60;;;3.98;57.51;95507.75;5038003;28;20453;-57
2022/01/29 06:35:26;;;;;;;9.50;4.77;;;4.10;82.10;;;4.22;57.52;95506.41;5043904;28;20483;-58
2022/01/29 06:37:54;;;;;;;5.00;3.83;;;4.40;82.20;;;4.58;57.04;95514.81;5039295;28;20964;-56
2022/01/29 06:40:22;;;;;;;4.63;4.23;;;4.60;81.80;;;4.85;56.57;95504.59;5038261;28;20483;-57
2022/01/29 06:42:49;;;;;;;3.87;3.57;;;4.90;81.10;;;5.02;55.29;95508.81;5037357;28;20460;-57
2022/01/29 06:45:16;;;;;;;4.83;3.67;;;5.10;79.60;;;5.24;55.52;95511.00;5040457;28;20534;-57
2022/01/29 06:47:43;;;;;;;5.30;4.50;;;5.30;79.30;;;5.57;55.14;95521.16;5038871;28;20562;-57
2022/01/29 06:50:11;;;;;;;8.33;3.80;;;5.60;78.70;;;5.87;54.53;95520.22;5040712;28;20538;-58
2022/01/29 06:52:39;;;;;;;3.50;3.27;;;5.90;78.10;;;6.02;53.67;95521.06;5042843;28;20966;-57
2022/01/29 06:55:08;;;;;;;4.10;3.70;;;6.10;76.50;;;6.01;52.89;95527.22;5038213;28;20960;-58
2022/01/29 06:57:35;;;;;;;8.53;3.60;;;6.20;74.90;;;5.95;53.29;95538.03;5037492;28;20490;-57
2022/01/29 07:00:03;;;;;;;6.53;4.63;;;6.10;74.50;;;5.85;53.33;95537.72;5040312;28;20572;-57
2022/01/29 07:02:30;;;;;;;4.13;3.80;;;6.10;74.30;;;5.74;53.56;95538.38;5040850;28;20452;-59
2022/01/29 07:04:58;;;;;;;4.93;4.60;;;6.00;74.40;;;5.63;53.36;95543.44;5033934;28;20464;-58
2022/01/29 07:07:26;;;;;;;4.97;4.50;;;5.90;74.60;;;5.58;53.64;95545.50;5037498;28;20471;-57
2022/01/29 07:09:53;;;;;;;4.60;4.20;;;5.80;75.90;;;5.54;53.52;95544.00;5037221;28;20456;-58
2022/01/29 07:12:22;;;;;;;6.33;4.33;;;5.80;75.10;;;5.48;53.78;95542.56;5034773;28;20472;-56
2022/01/29 07:14:50;;;;;;;4.73;4.33;;;5.70;75.10;;;5.35;53.70;95550.31;5038245;28;20488;-60
2022/01/29 07:17:18;;;;;;;8.13;4.80;;;5.60;75.00;;;5.26;54.07;95545.63;5035482;28;20899;-56
2022/01/29 07:19:45;;;;;;;4.57;4.27;;;5.50;75.30;;;5.20;54.30;95548.59;5038824;28;20448;-56
2022/01/29 07:22:13;;;;;;;6.47;5.37;;;5.40;75.70;;;5.18;54.44;95542.66;5038888;28;20472;-57
2022/01/29 07:24:40;;;;;;;6.50;5.27;;;5.40;76.00;;;5.18;54.91;95547.88;5035103;28;20456;-56
2022/01/29 07:27:08;;;;;;;4.90;4.43;;;5.40;76.90;;;5.20;54.73;95543.38;5037163;28;20471;-56
2022/01/29 07:29:36;;;;;;;5.57;4.33;;;5.40;76.80;;;5.24;54.54;95542.28;5035748;28;20552;-57
2022/01/29 07:32:04;;;;;;;8.20;4.80;;;5.40;76.60;;;5.30;54.26;95559.31;5036971;28;20473;-61
2022/01/29 07:34:32;;;;;;;5.10;4.60;;;5.40;76.50;;;5.33;54.57;95552.19;5037254;28;20471;-56
2022/01/29 07:36:59;;;;;;;4.80;4.20;;;5.50;77.30;;;5.35;54.43;95555.53;5039907;28;20856;-57
2022/01/29 07:39:27;;;;;;;4.53;4.13;;;5.50;76.30;;;5.34;54.06;95553.00;5039455;28;20475;-57
2022/01/29 07:41:54;;;;;;;4.57;4.17;;;5.50;76.10;;;5.36;54.45;95561.56;5037729;28;21012;-57
2022/01/29 07:44:21;;;;;;;3.90;3.60;;;5.50;76.20;;;5.37;54.22;95558.03;5040560;28;20453;-56
2022/01/29 07:46:50;;;;;;;5.33;3.87;;;5.50;76.00;;;5.39;54.00;95569.22;5034975;28;20485;-58
2022/01/29 07:49:17;;;;;;;4.13;3.80;;;5.50;75.90;;;5.36;54.15;95567.66;5035608;28;20939;-56
2022/01/29 07:51:45;;;;;;;7.80;5.63;;;5.50;75.90;;;5.32;54.21;95560.91;5036892;28;20495;-57
2022/01/29 07:54:12;;;;;;;5.90;5.20;;;5.60;75.70;;;5.32;54.18;95566.13;5038713;28;20456;-57
2022/01/29 07:56:39;;;;;;;4.20;3.90;;;5.50;75.90;;;5.30;53.99;95573.22;5037915;28;20461;-57
2022/01/29 07:59:07;;;;;;;4.60;4.30;;;5.50;75.80;;;5.28;54.46;95575.06;5036804;28;20440;-58
2022/01/29 08:01:34;;;;;;;5.77;4.33;;;5.50;76.10;;;5.26;54.36;95571.72;5034495;28;20484;-55
2022/01/29 08:04:03;;;;;;;5.57;5.17;;;5.50;76.40;;;5.26;54.31;95573.50;5033181;28;20472;-57
2022/01/29 08:06:30;;;;;;;15.07;7.37;;;5.40;76.10;;;5.23;54.58;95574.50;5031080;28;20491;-56
2022/01/29 08:08:57;;;;;;;7.03;6.33;;;5.40;76.40;;;5.24;54.67;95578.81;5037740;28;20514;-57
2022/01/29 08:11:25;;;;;;;6.87;6.17;;;5.40;76.40;;;5.24;54.28;95584.00;5036045;28;20548;-57
2022/01/29 08:13:52;;;;;;;6.60;6.00;;;5.40;76.70;;;5.25;54.81;95585.69;5036262;28;20456;-57
2022/01/29 08:16:20;;;;;;;5.20;4.70;;;5.40;76.80;;;5.28;54.89;95585.50;5039589;28;20479;-57
2022/01/29 08:18:47;;;;;;;6.50;5.10;;;5.50;77.00;;;5.31;54.72;95584.47;5034828;28;20445;-58
2022/01/29 08:21:16;;;;;;;13.53;5.60;;;5.50;76.80;;;5.33;54.53;95588.69;5036379;28;20499;-57
2022/01/29 08:23:43;;;;;;;4.90;4.60;;;5.50;76.80;;;5.35;54.73;95592.03;5036450;28;20461;-58
2022/01/29 08:26:11;;;;;;;5.40;4.90;;;5.50;76.70;;;5.38;54.55;95594.47;5035680;28;20546;-58
2022/01/29 08:28:38;;;;;;;9.53;4.40;;;5.50;76.50;;;5.44;54.52;95589.81;5035056;28;20499;-57
2022/01/29 08:31:06;;;;;;;9.00;5.53;;;5.60;76.60;;;5.49;54.72;95593.00;5035006;28;20464;-57
2022/01/29 08:33:33;;;;;;;8.00;5.50;;;5.60;76.70;;;5.54;54.77;95594.38;5045119;28;20860;-58
2022/01/29 08:36:01;;;;;;;5.33;4.83;;;5.70;76.80;;;5.62;54.41;95596.53;5032652;28;20473;-57
2022/01/29 08:38:29;;;;;;;9.30;6.50;;;5.80;76.80;;;5.66;54.17;95602.44;5035376;28;20508;-57
2022/01/29 08:40:58;;;;;;;7.90;6.90;;;5.80;76.40;;;5.70;54.57;95602.16;5033834;28;20496;-58
2022/01/29 08:43:25;;;;;;;6.27;5.50;;;5.90;76.50;;;5.78;54.02;95598.25;5036927;28;20474;-57
2022/01/29 08:45:52;;;;;;;7.23;5.37;;;5.90;76.30;;;5.86;54.09;95598.63;5034464;28;20904;-58
2022/01/29 08:48:20;;;;;;;5.37;4.93;;;6.00;76.00;;;5.93;53.80;95600.78;5038533;28;20456;-58
2022/01/29 08:50:47;;;;;;;7.00;5.03;;;6.10;75.70;;;6.00;53.60;95605.66;5036454;28;20471;-57
2022/01/29 08:53:15;;;;;;;5.53;5.00;;;6.10;75.30;;;6.07;53.14;95604.34;5029377;28;20546;-58
2022/01/29 08:55:44;;;;;;;6.10;5.60;;;6.20;75.00;;;6.16;53.60;95613.38;5033551;28;20539;-58
2022/01/29 08:58:12;;;;;;;5.33;4.93;;;6.30;75.00;;;6.18;53.31;95608.91;5038328;28;20459;-59
2022/01/29 09:00:41;;;;;;;6.07;5.40;;;6.30;74.40;;;6.17;52.94;95609.84;5034988;28;20483;-57
2022/01/29 09:03:08;;;;;;;6.10;4.97;;;6.30;74.30;;;6.20;52.78;95617.50;5034927;28;20464;-57
2022/01/29 09:05:36;;;;;;;11.97;5.73;;;6.30;74.20;;;6.20;54.03;95615.72;5034882;28;20487;-57
2022/01/29 09:08:03;;;;;;;5.10;4.63;;;6.40;75.20;;;6.19;53.51;95615.81;5033933;28;20463;-57
2022/01/29 09:10:31;;;;;;;5.40;4.50;;;6.40;74.90;;;6.16;53.37;95618.59;5037268;28;20476;-56
2022/01/29 09:13:00;;;;;;;5.67;5.17;;;6.30;74.00;;;6.07;53.40;95614.78;5037584;28;20538;-56
2022/01/29 09:15:27;;;;;;;7.87;6.60;;;6.20;74.10;;;6.03;53.33;95618.53;5030612;28;20884;-56
2022/01/29 09:17:55;;;;;;;5.67;5.13;;;6.20;74.60;;;6.03;53.58;95623.75;5036421;28;20964;-58
2022/01/29 09:20:22;;;;;;;6.33;5.83;;;6.20;74.60;;;6.08;53.85;95619.06;5036455;28;20969;-56
2022/01/29 09:22:49;;;;;;;6.47;5.97;;;6.20;75.50;;;6.15;53.59;95616.91;5040382;28;20457;-56
2022/01/29 09:25:16;;;;;;;5.70;5.20;;;6.30;75.60;;;6.26;53.08;95617.13;5037417;28;20907;-57
2022/01/29 09:27:44;;;;;;;5.73;5.10;;;6.40;75.30;;;6.41;54.03;95612.69;5036971;28;20457;-55
2022/01/29 09:30:13;;;;;;;4.77;4.37;;;6.50;75.80;;;6.66;52.92;95606.75;5040147;28;20977;-57
2022/01/29 09:32:40;;;;;;;6.20;5.57;;;6.70;74.80;;;7.06;52.31;95605.97;5035785;28;20457;-57
2022/01/29 09:35:09;;;;;;;4.57;4.27;;;7.00;73.80;;;7.53;51.60;95600.22;5039009;28;20497;-56
2022/01/29 09:37:36;;;;;;;5.60;4.73;;;7.40;73.60;;;8.02;50.92;95605.66;5039968;28;20452;-57
2022/01/29 09:40:04;;;;;;;5.50;5.00;;;7.80;72.10;;;8.52;49.74;95605.69;5033774;28;20455;-57
2022/01/29 09:42:31;;;;;;;5.90;4.30;;;8.30;70.80;;;9.14;48.86;95595.09;5030962;28;20544;-58
2022/01/29 09:44:58;;;;;;;8.57;4.30;;;8.90;69.30;;;9.78;47.99;95604.34;5035244;28;20476;-57
2022/01/29 09:47:27;;;;;;;4.67;4.13;;;9.50;67.70;;;10.45;47.13;95605.34;5033388;28;20571;-57
2022/01/29 09:49:54;;;;;;;6.20;4.37;;;10.00;65.00;;;10.84;43.30;95599.69;5035233;28;20656;-57
2022/01/29 09:52:22;;;;;;;5.23;4.73;;;10.50;58.90;;;10.80;44.47;95593.84;5031433;28;20483;-58
2022/01/29 09:54:49;;;;;;;4.80;4.50;;;10.60;58.20;;;10.59;41.77;95594.56;5042401;28;20542;-59
2022/01/29 09:57:17;;;;;;;4.83;4.37;;;10.50;54.70;;;10.25;41.96;95592.91;5036656;28;20487;-57
2022/01/29 09:59:46;;;;;;;6.43;5.13;;;10.30;54.40;;;9.81;44.62;95593.59;5038149;28;20484;-57
2022/01/29 10:02:18;;;;;;;4.53;4.20;;;10.00;57.00;;;9.45;45.28;95594.56;5038407;28;20549;-57
2022/01/29 10:04:51;;;;;;;8.00;4.53;;;9.60;58.80;;;9.20;46.08;95606.06;5036668;28;20476;-56
2022/01/29 10:07:19;;;;;;;5.67;4.70;;;9.30;59.40;;;8.93;46.11;95600.09;5033572;28;20472;-58
2022/01/29 10:09:47;;;;;;;9.10;5.13;;;9.10;59.70;;;8.64;45.37;95604.81;5033545;28;20458;-57
2022/01/29 10:12:24;;;;;;;8.60;6.90;;;8.80;58.60;;;8.31;46.61;95615.91;5036569;28;20475;-57
2022/01/29 10:14:53;;;;;;;12.77;6.90;;;8.50;60.40;;;8.06;47.63;95600.09;5036693;28;20466;-57
2022/01/29 10:17:44;;;;;;;6.03;5.47;;;8.30;62.10;;;7.82;48.07;95607.88;5034612;28;20472;-57
2022/01/29 10:20:19;;;;;;;11.27;6.00;;;8.00;62.30;;;7.59;48.59;95605.97;5035423;28;20448;-57
2022/01/29 10:22:48;;;;;;;9.20;6.90;;;7.80;63.00;;;7.37;48.64;95602.16;5038938;28;20479;-58
2022/01/29 10:25:18;;;;;;;8.87;6.30;;;7.60;64.20;;;7.18;49.52;95606.00;5036859;28;20495;-57
2022/01/29 10:28:14;;;;;;;7.13;6.53;;;7.40;65.10;;;7.03;49.56;95607.00;5039570;28;20467;-58
2022/01/29 10:31:01;;;;;;;10.77;8.00;;;7.20;66.00;;;6.89;50.21;95609.69;5033961;28;20499;-57
2022/01/29 10:33:30;;;;;;;10.10;7.47;;;7.10;67.00;;;6.79;50.33;95601.59;5038452;28;20482;-56
2022/01/29 10:35:59;;;;;;;8.87;6.83;;;7.00;67.40;;;6.72;50.70;95598.50;5039714;28;20472;-56
2022/01/29 10:38:28;;;;;;;9.93;8.90;;;6.90;68.10;;;6.68;51.22;95594.44;5035392;28;20547;-56
2022/01/29 10:41:15;;;;;;;6.27;5.70;;;6.90;68.80;;;6.65;51.17;95605.09;5038419;28;20554;-57
2022/01/29 10:44:15;;;;;;;6.77;5.80;;;6.80;69.00;;;6.60;51.35;95608.00;5035928;28;20475;-57
2022/01/29 10:46:44;;;;;;;6.50;5.50;;;6.80;69.20;;;6.55;51.52;95617.06;5033769;28;20495;-57
2022/01/29 10:49:23;;;;;;;7.17;6.57;;;6.70;69.00;;;6.49;51.53;95610.47;5033673;28;20487;-57